sensor_id;sensor_type;location;lat;lon;timestamp;pressure;altitude;pressure_sealevel;temperature;humidity
71109;BME280;59614;51.012;-1.648;2022-07-09T00:00:22;102228.53;;;17.59;75.05
71109;BME280;59614;51.012;-1.648;2022-07-09T00:02:48;102229.44;;;17.58;74.97
71109;BME280;59614;51.012;-1.648;2022-07-09T00:05:14;102233.09;;;17.54;74.96
71109;BME280;59614;51.012;-1.648;2022-07-09T00:07:40;102234.94;;;17.49;75.21
71109;BME280;59614;51.012;-1.648;2022-07-09T00:10:06;102238.63;;;17.40;75.67
71109;BME280;59614;51.012;-1.648;2022-07-09T00:12:32;102240.56;;;17.33;75.76
71109;BME280;59614;51.012;-1.648;2022-07-09T00:14:57;102240.63;;;17.27;76.18
71109;BME280;59614;51.012;-1.648;2022-07-09T00:17:23;102245.19;;;17.22;76.81
71109;BME280;59614;51.012;-1.648;2022-07-09T00:19:48;102242.53;;;17.17;76.95
71109;BME280;59614;51.012;-1.648;2022-07-09T00:22:14;102238.19;;;17.11;77.16
71109;BME280;59614;51.012;-1.648;2022-07-09T00:24:39;102234.75;;;17.03;77.71
71109;BME280;59614;51.012;-1.648;2022-07-09T00:27:05;102232.13;;;17.00;77.74
71109;BME280;59614;51.012;-1.648;2022-07-09T00:29:30;102225.06;;;16.99;77.68
71109;BME280;59614;51.012;-1.648;2022-07-09T00:31:56;102225.09;;;16.96;77.69
71109;BME280;59614;51.012;-1.648;2022-07-09T00:34:21;102230.44;;;16.96;77.43
71109;BME280;59614;51.012;-1.648;2022-07-09T00:36:47;102233.09;;;16.96;77.00
71109;BME280;59614;51.012;-1.648;2022-07-09T00:39:12;102228.66;;;16.95;76.89
71109;BME280;59614;51.012;-1.648;2022-07-09T00:41:38;102228.66;;;16.92;76.75
71109;BME280;59614;51.012;-1.648;2022-07-09T00:44:03;102224.22;;;16.92;76.40
71109;BME280;59614;51.012;-1.648;2022-07-09T00:46:29;102229.63;;;16.88;76.58
71109;BME280;59614;51.012;-1.648;2022-07-09T00:48:54;102230.53;;;16.85;76.43
71109;BME280;59614;51.012;-1.648;2022-07-09T00:51:20;102220.81;;;16.79;76.67
71109;BME280;59614;51.012;-1.648;2022-07-09T00:53:46;102226.19;;;16.78;76.35
71109;BME280;59614;51.012;-1.648;2022-07-09T00:56:13;102227.19;;;16.69;76.45
71109;BME280;59614;51.012;-1.648;2022-07-09T00:58:42;102231.72;;;16.64;76.60
71109;BME280;59614;51.012;-1.648;2022-07-09T01:01:07;102226.59;;;16.47;77.45
71109;BME280;59614;51.012;-1.648;2022-07-09T01:03:33;102222.34;;;16.32;78.02
71109;BME280;59614;51.012;-1.648;2022-07-09T01:05:59;102222.38;;;16.26;78.12
71109;BME280;59614;51.012;-1.648;2022-07-09T01:08:24;102218.72;;;16.36;76.59
71109;BME280;59614;51.012;-1.648;2022-07-09T01:10:51;102216.03;;;16.39;75.94
71109;BME280;59614;51.012;-1.648;2022-07-09T01:13:18;102216.91;;;16.38;76.38
71109;BME280;59614;51.012;-1.648;2022-07-09T01:15:44;102212.47;;;16.40;76.05
71109;BME280;59614;51.012;-1.648;2022-07-09T01:18:10;102211.72;;;16.29;76.35
71109;BME280;59614;51.012;-1.648;2022-07-09T01:20:36;102204.78;;;16.12;77.07
71109;BME280;59614;51.012;-1.648;2022-07-09T01:23:02;102219.09;;;16.02;77.76
71109;BME280;59614;51.012;-1.648;2022-07-09T01:25:35;102211.88;;;16.15;76.55
71109;BME280;59614;51.012;-1.648;2022-07-09T01:28:02;102207.38;;;16.17;76.01
71109;BME280;59614;51.012;-1.648;2022-07-09T01:30:28;102205.50;;;16.27;74.10
71109;BME280;59614;51.012;-1.648;2022-07-09T01:32:54;102215.28;;;16.28;74.04
71109;BME280;59614;51.012;-1.648;2022-07-09T01:35:20;102221.47;;;16.30;73.25
71109;BME280;59614;51.012;-1.648;2022-07-09T01:37:46;102212.53;;;16.32;72.76
71109;BME280;59614;51.012;-1.648;2022-07-09T01:40:12;102208.09;;;16.34;72.41
71109;BME280;59614;51.012;-1.648;2022-07-09T01:42:38;102208.16;;;16.30;71.80
71109;BME280;59614;51.012;-1.648;2022-07-09T01:45:04;102208.28;;;16.17;73.06
71109;BME280;59614;51.012;-1.648;2022-07-09T01:47:29;102211.81;;;16.19;71.51
71109;BME280;59614;51.012;-1.648;2022-07-09T01:49:55;102202.06;;;16.18;71.50
71109;BME280;59614;51.012;-1.648;2022-07-09T01:52:20;102203.88;;;16.13;71.37
71109;BME280;59614;51.012;-1.648;2022-07-09T01:54:46;102206.56;;;16.10;71.19
71109;BME280;59614;51.012;-1.648;2022-07-09T01:57:11;102211.91;;;16.10;70.82
71109;BME280;59614;51.012;-1.648;2022-07-09T01:59:37;102213.69;;;16.10;70.29
71109;BME280;59614;51.012;-1.648;2022-07-09T02:02:02;102216.38;;;16.06;70.26
71109;BME280;59614;51.012;-1.648;2022-07-09T02:04:28;102212.84;;;16.04;70.20
71109;BME280;59614;51.012;-1.648;2022-07-09T02:06:53;102215.53;;;16.03;69.95
71109;BME280;59614;51.012;-1.648;2022-07-09T02:09:18;102221.81;;;15.97;70.32
71109;BME280;59614;51.012;-1.648;2022-07-09T02:11:44;102220.13;;;15.90;70.47
71109;BME280;59614;51.012;-1.648;2022-07-09T02:14:09;102218.34;;;15.89;70.93
71109;BME280;59614;51.012;-1.648;2022-07-09T02:16:35;102227.25;;;15.86;70.93
71109;BME280;59614;51.012;-1.648;2022-07-09T02:19:01;102222.81;;;15.82;71.10
71109;BME280;59614;51.012;-1.648;2022-07-09T02:21:26;102216.63;;;15.82;71.06
71109;BME280;59614;51.012;-1.648;2022-07-09T02:23:52;102229.94;;;15.77;71.73
71109;BME280;59614;51.012;-1.648;2022-07-09T02:26:21;102228.22;;;15.73;71.53
71109;BME280;59614;51.012;-1.648;2022-07-09T02:28:47;102229.13;;;15.69;72.06
71109;BME280;59614;51.012;-1.648;2022-07-09T02:31:12;102222.03;;;15.68;72.08
71109;BME280;59614;51.012;-1.648;2022-07-09T02:33:38;102219.38;;;15.68;72.20
71109;BME280;59614;51.012;-1.648;2022-07-09T02:36:04;102224.75;;;15.65;72.09
71109;BME280;59614;51.012;-1.648;2022-07-09T02:38:29;102215.91;;;15.63;72.68
71109;BME280;59614;51.012;-1.648;2022-07-09T02:40:55;102226.53;;;15.63;72.60
71109;BME280;59614;51.012;-1.648;2022-07-09T02:43:20;102219.44;;;15.62;72.35
71109;BME280;59614;51.012;-1.648;2022-07-09T02:45:45;102227.50;;;15.54;72.94
71109;BME280;59614;51.012;-1.648;2022-07-09T02:48:11;102223.03;;;15.54;72.91
71109;BME280;59614;51.012;-1.648;2022-07-09T02:50:36;102224.88;;;15.52;73.18
71109;BME280;59614;51.012;-1.648;2022-07-09T02:53:02;102224.88;;;15.52;73.08
71109;BME280;59614;51.012;-1.648;2022-07-09T02:55:27;102230.19;;;15.52;73.54
71109;BME280;59614;51.012;-1.648;2022-07-09T02:57:52;102223.97;;;15.50;73.56
71109;BME280;59614;51.012;-1.648;2022-07-09T03:00:18;102213.34;;;15.47;73.63
71109;BME280;59614;51.012;-1.648;2022-07-09T03:02:43;102221.34;;;15.47;73.62
71109;BME280;59614;51.012;-1.648;2022-07-09T03:05:09;102219.59;;;15.43;74.04
71109;BME280;59614;51.012;-1.648;2022-07-09T03:07:35;102219.63;;;15.40;74.26
71109;BME280;59614;51.012;-1.648;2022-07-09T03:10:00;102222.31;;;15.37;74.55
71109;BME280;59614;51.012;-1.648;2022-07-09T03:12:25;102222.31;;;15.37;74.55
71109;BME280;59614;51.012;-1.648;2022-07-09T03:14:51;102224.97;;;15.37;74.57
71109;BME280;59614;51.012;-1.648;2022-07-09T03:17:16;102225.84;;;15.39;74.54
71109;BME280;59614;51.012;-1.648;2022-07-09T03:19:42;102226.75;;;15.35;74.83
71109;BME280;59614;51.012;-1.648;2022-07-09T03:22:07;102223.22;;;15.33;75.28
71109;BME280;59614;51.012;-1.648;2022-07-09T03:24:33;102224.16;;;15.28;75.55
71109;BME280;59614;51.012;-1.648;2022-07-09T03:26:58;102226.81;;;15.28;75.55
71109;BME280;59614;51.012;-1.648;2022-07-09T03:29:23;102222.41;;;15.23;76.16
71109;BME280;59614;51.012;-1.648;2022-07-09T03:31:49;102230.38;;;15.24;76.31
71109;BME280;59614;51.012;-1.648;2022-07-09T03:34:14;102235.72;;;15.21;76.49
71109;BME280;59614;51.012;-1.648;2022-07-09T03:36:40;102234.88;;;15.19;76.82
71109;BME280;59614;51.012;-1.648;2022-07-09T03:39:06;102242.84;;;15.18;76.84
71109;BME280;59614;51.012;-1.648;2022-07-09T03:41:31;102235.78;;;15.12;76.81
71109;BME280;59614;51.012;-1.648;2022-07-09T03:43:57;102237.59;;;15.07;77.34
71109;BME280;59614;51.012;-1.648;2022-07-09T03:46:23;102242.91;;;15.07;77.48
71109;BME280;59614;51.012;-1.648;2022-07-09T03:48:49;102238.53;;;15.01;77.38
71109;BME280;59614;51.012;-1.648;2022-07-09T03:51:15;102241.22;;;14.96;77.74
71109;BME280;59614;51.012;-1.648;2022-07-09T03:53:40;102234.13;;;14.92;77.74
71109;BME280;59614;51.012;-1.648;2022-07-09T03:56:06;102248.34;;;14.90;77.95
71109;BME280;59614;51.012;-1.648;2022-07-09T03:58:31;102242.13;;;14.86;78.38
71109;BME280;59614;51.012;-1.648;2022-07-09T04:00:57;102239.50;;;14.83;78.20
71109;BME280;59614;51.012;-1.648;2022-07-09T04:03:22;102236.84;;;14.80;78.63
71109;BME280;59614;51.012;-1.648;2022-07-09T04:05:48;102233.31;;;14.76;78.64
71109;BME280;59614;51.012;-1.648;2022-07-09T04:08:13;102234.25;;;14.74;78.76
71109;BME280;59614;51.012;-1.648;2022-07-09T04:10:40;102236.03;;;14.67;78.80
71109;BME280;59614;51.012;-1.648;2022-07-09T04:13:05;102242.22;;;14.61;79.15
71109;BME280;59614;51.012;-1.648;2022-07-09T04:15:31;102246.69;;;14.58;79.19
71109;BME280;59614;51.012;-1.648;2022-07-09T04:17:57;102238.69;;;14.53;79.49
71109;BME280;59614;51.012;-1.648;2022-07-09T04:20:23;102248.47;;;14.48;79.69
71109;BME280;59614;51.012;-1.648;2022-07-09T04:22:51;102240.50;;;14.48;79.76
71109;BME280;59614;51.012;-1.648;2022-07-09T04:25:16;102240.50;;;14.45;79.68
71109;BME280;59614;51.012;-1.648;2022-07-09T04:27:42;102247.59;;;14.46;79.80
71109;BME280;59614;51.012;-1.648;2022-07-09T04:30:08;102249.38;;;14.45;79.81
71109;BME280;59614;51.012;-1.648;2022-07-09T04:32:34;102246.69;;;14.47;80.00
71109;BME280;59614;51.012;-1.648;2022-07-09T04:34:59;102248.47;;;14.45;80.21
71109;BME280;59614;51.012;-1.648;2022-07-09T04:37:25;102251.16;;;14.46;80.11
71109;BME280;59614;51.012;-1.648;2022-07-09T04:39:50;102246.69;;;14.44;80.42
71109;BME280;59614;51.012;-1.648;2022-07-09T04:42:16;102252.00;;;14.44;80.14
71109;BME280;59614;51.012;-1.648;2022-07-09T04:44:41;102252.00;;;14.47;79.92
71109;BME280;59614;51.012;-1.648;2022-07-09T04:47:09;102253.78;;;14.48;80.16
71109;BME280;59614;51.012;-1.648;2022-07-09T04:49:34;102249.34;;;14.51;79.93
71109;BME280;59614;51.012;-1.648;2022-07-09T04:52:00;102250.19;;;14.55;79.45
71109;BME280;59614;51.012;-1.648;2022-07-09T04:54:25;102251.97;;;14.56;79.46
71109;BME280;59614;51.012;-1.648;2022-07-09T04:56:51;102259.06;;;14.57;80.09
71109;BME280;59614;51.012;-1.648;2022-07-09T04:59:16;102258.16;;;14.61;79.92
71109;BME280;59614;51.012;-1.648;2022-07-09T05:01:42;102258.16;;;14.61;79.68
71109;BME280;59614;51.012;-1.648;2022-07-09T05:04:07;102259.91;;;14.64;79.71
71109;BME280;59614;51.012;-1.648;2022-07-09T05:06:33;102255.50;;;14.67;79.46
71109;BME280;59614;51.012;-1.648;2022-07-09T05:08:58;102244.00;;;14.69;79.36
71109;BME280;59614;51.012;-1.648;2022-07-09T05:11:24;102248.41;;;14.73;79.44
71109;BME280;59614;51.012;-1.648;2022-07-09T05:13:50;102240.41;;;14.77;79.24
71109;BME280;59614;51.012;-1.648;2022-07-09T05:16:16;102244.81;;;14.83;79.35
71109;BME280;59614;51.012;-1.648;2022-07-09T05:18:41;102240.34;;;14.91;79.17
71109;BME280;59614;51.012;-1.648;2022-07-09T05:21:07;102240.28;;;15.01;78.86
71109;BME280;59614;51.012;-1.648;2022-07-09T05:23:33;102238.47;;;15.07;78.64
71109;BME280;59614;51.012;-1.648;2022-07-09T05:25:58;102242.84;;;15.16;78.34
71109;BME280;59614;51.012;-1.648;2022-07-09T05:28:24;102233.03;;;15.27;77.97
71109;BME280;59614;51.012;-1.648;2022-07-09T05:30:49;102230.31;;;15.34;77.62
71109;BME280;59614;51.012;-1.648;2022-07-09T05:33:15;102235.59;;;15.40;77.66
71109;BME280;59614;51.012;-1.648;2022-07-09T05:35:40;102234.66;;;15.47;77.13
71109;BME280;59614;51.012;-1.648;2022-07-09T05:38:05;102235.47;;;15.55;76.86
71109;BME280;59614;51.012;-1.648;2022-07-09T05:40:31;102239.84;;;15.63;76.68
71109;BME280;59614;51.012;-1.648;2022-07-09T05:42:57;102244.22;;;15.67;76.82
71109;BME280;59614;51.012;-1.648;2022-07-09T05:45:22;102242.44;;;15.72;76.39
71109;BME280;59614;51.012;-1.648;2022-07-09T05:47:48;102242.38;;;15.80;76.37
71109;BME280;59614;51.012;-1.648;2022-07-09T05:50:13;102251.22;;;15.86;76.02
71109;BME280;59614;51.012;-1.648;2022-07-09T05:52:39;102247.59;;;15.94;75.77
71109;BME280;59614;51.012;-1.648;2022-07-09T05:55:04;102262.66;;;15.98;75.69
71109;BME280;59614;51.012;-1.648;2022-07-09T05:57:30;102256.38;;;16.02;75.65
71109;BME280;59614;51.012;-1.648;2022-07-09T05:59:57;102260.81;;;16.03;75.36
71109;BME280;59614;51.012;-1.648;2022-07-09T06:02:23;102268.78;;;16.04;75.63
71109;BME280;59614;51.012;-1.648;2022-07-09T06:04:48;102268.78;;;16.04;75.38
71109;BME280;59614;51.012;-1.648;2022-07-09T06:07:14;102265.19;;;16.09;75.54
71109;BME280;59614;51.012;-1.648;2022-07-09T06:09:40;102261.63;;;16.13;75.50
71109;BME280;59614;51.012;-1.648;2022-07-09T06:12:06;102265.16;;;16.13;75.76
71109;BME280;59614;51.012;-1.648;2022-07-09T06:14:31;102266.88;;;16.20;75.51
71109;BME280;59614;51.012;-1.648;2022-07-09T06:16:57;102268.56;;;16.28;75.42
71109;BME280;59614;51.012;-1.648;2022-07-09T06:19:26;102273.78;;;16.37;75.34
71109;BME280;59614;51.012;-1.648;2022-07-09T06:21:51;102274.50;;;16.51;75.28
71109;BME280;59614;51.012;-1.648;2022-07-09T06:24:17;102277.06;;;16.61;74.70
71109;BME280;59614;51.012;-1.648;2022-07-09T06:26:42;102273.38;;;16.71;74.69
71109;BME280;59614;51.012;-1.648;2022-07-09T06:29:08;102271.56;;;16.76;74.14
71109;BME280;59614;51.012;-1.648;2022-07-09T06:31:33;102276.00;;;16.77;74.06
71109;BME280;59614;51.012;-1.648;2022-07-09T06:33:59;102264.28;;;16.88;74.31
71109;BME280;59614;51.012;-1.648;2022-07-09T06:36:25;102269.50;;;16.98;74.10
71109;BME280;59614;51.012;-1.648;2022-07-09T06:38:50;102262.13;;;17.18;73.28
71109;BME280;59614;51.012;-1.648;2022-07-09T06:41:34;102271.81;;;17.23;73.18
71109;BME280;59614;51.012;-1.648;2022-07-09T06:44:00;102278.09;;;17.21;73.29
71109;BME280;59614;51.012;-1.648;2022-07-09T06:46:26;102275.25;;;17.33;72.92
71109;BME280;59614;51.012;-1.648;2022-07-09T06:48:51;102273.28;;;17.44;72.48
71109;BME280;59614;51.012;-1.648;2022-07-09T06:51:17;102266.06;;;17.50;72.40
71109;BME280;59614;51.012;-1.648;2022-07-09T06:53:42;102265.78;;;17.68;72.18
71109;BME280;59614;51.012;-1.648;2022-07-09T06:56:08;102261.75;;;17.97;71.61
71109;BME280;59614;51.012;-1.648;2022-07-09T06:58:33;102267.75;;;18.12;71.15
71109;BME280;59614;51.012;-1.648;2022-07-09T07:00:59;102253.16;;;18.28;70.00
71109;BME280;59614;51.012;-1.648;2022-07-09T07:03:24;102253.97;;;18.32;69.67
71109;BME280;59614;51.012;-1.648;2022-07-09T07:05:50;102264.22;;;18.53;68.85
71109;BME280;59614;51.012;-1.648;2022-07-09T07:08:15;102260.50;;;18.62;68.54
71109;BME280;59614;51.012;-1.648;2022-07-09T07:10:40;102260.81;;;18.89;67.66
71109;BME280;59614;51.012;-1.648;2022-07-09T07:13:06;102262.25;;;19.06;66.90
71109;BME280;59614;51.012;-1.648;2022-07-09T07:15:31;102258.41;;;19.19;66.31
71109;BME280;59614;51.012;-1.648;2022-07-09T07:17:57;102252.69;;;19.35;66.09
71109;BME280;59614;51.012;-1.648;2022-07-09T07:20:22;102254.06;;;19.51;65.10
71109;BME280;59614;51.012;-1.648;2022-07-09T07:22:50;102260.34;;;19.86;63.77
71109;BME280;59614;51.012;-1.648;2022-07-09T07:25:16;102265.06;;;19.39;64.83
71109;BME280;59614;51.012;-1.648;2022-07-09T07:27:41;102265.66;;;19.52;64.50
71109;BME280;59614;51.012;-1.648;2022-07-09T07:30:07;102264.09;;;19.79;63.17
71109;BME280;59614;51.012;-1.648;2022-07-09T07:32:33;102263.81;;;19.54;64.39
71109;BME280;59614;51.012;-1.648;2022-07-09T07:34:59;102266.47;;;19.55;64.18
71109;BME280;59614;51.012;-1.648;2022-07-09T07:37:24;102267.63;;;20.16;62.11
71109;BME280;59614;51.012;-1.648;2022-07-09T07:39:50;102270.69;;;20.65;60.43
71109;BME280;59614;51.012;-1.648;2022-07-09T07:42:15;102270.47;;;21.04;58.46
71109;BME280;59614;51.012;-1.648;2022-07-09T07:44:41;102272.25;;;21.04;58.73
71109;BME280;59614;51.012;-1.648;2022-07-09T07:47:07;102267.94;;;20.98;58.41
71109;BME280;59614;51.012;-1.648;2022-07-09T07:49:33;102269.72;;;21.27;58.19
71109;BME280;59614;51.012;-1.648;2022-07-09T07:51:58;102264.31;;;21.56;56.76
71109;BME280;59614;51.012;-1.648;2022-07-09T07:54:24;102262.53;;;21.28;57.59
71109;BME280;59614;51.012;-1.648;2022-07-09T07:56:49;102264.28;;;21.59;56.68
71109;BME280;59614;51.012;-1.648;2022-07-09T07:59:16;102260.44;;;21.66;56.27
71109;BME280;59614;51.012;-1.648;2022-07-09T08:01:41;102263.22;;;21.90;56.18
71109;BME280;59614;51.012;-1.648;2022-07-09T08:04:07;102265.72;;;22.20;55.25
71109;BME280;59614;51.012;-1.648;2022-07-09T08:06:32;102262.50;;;22.35;55.17
71109;BME280;59614;51.012;-1.648;2022-07-09T08:08:58;102250.31;;;22.25;54.19
71109;BME280;59614;51.012;-1.648;2022-07-09T08:11:23;102254.03;;;22.70;53.48
71109;BME280;59614;51.012;-1.648;2022-07-09T08:13:48;102257.09;;;22.61;53.38
71109;BME280;59614;51.012;-1.648;2022-07-09T08:16:14;102254.81;;;22.74;52.83
71109;BME280;59614;51.012;-1.648;2022-07-09T08:18:40;102258.16;;;22.31;54.38
71109;BME280;59614;51.012;-1.648;2022-07-09T08:21:05;102264.81;;;21.96;55.37
71109;BME280;59614;51.012;-1.648;2022-07-09T08:23:30;102263.31;;;21.87;55.80
71109;BME280;59614;51.012;-1.648;2022-07-09T08:25:56;102260.44;;;21.66;56.34
71109;BME280;59614;51.012;-1.648;2022-07-09T08:28:21;102266.94;;;21.02;58.41
71109;BME280;59614;51.012;-1.648;2022-07-09T08:30:47;102265.19;;;21.01;58.59
71109;BME280;59614;51.012;-1.648;2022-07-09T08:33:13;102266.03;;;21.02;58.14
71109;BME280;59614;51.012;-1.648;2022-07-09T08:35:38;102268.94;;;20.64;58.68
71109;BME280;59614;51.012;-1.648;2022-07-09T08:38:03;102274.84;;;20.45;59.03
71109;BME280;59614;51.012;-1.648;2022-07-09T08:40:30;102269.72;;;20.67;58.73
71109;BME280;59614;51.012;-1.648;2022-07-09T08:42:56;102260.03;;;20.93;57.86
71109;BME280;59614;51.012;-1.648;2022-07-09T08:45:23;102270.72;;;20.95;57.13
71109;BME280;59614;51.012;-1.648;2022-07-09T08:47:49;102269.34;;;21.40;56.49
71109;BME280;59614;51.012;-1.648;2022-07-09T08:50:15;102251.78;;;21.83;55.72
71109;BME280;59614;51.012;-1.648;2022-07-09T08:52:41;102263.88;;;22.22;53.73
71109;BME280;59614;51.012;-1.648;2022-07-09T08:55:08;102259.34;;;21.97;54.37
71109;BME280;59614;51.012;-1.648;2022-07-09T08:57:34;102253.06;;;21.98;54.04
71109;BME280;59614;51.012;-1.648;2022-07-09T09:00:03;102252.94;;;22.76;51.95
71109;BME280;59614;51.012;-1.648;2022-07-09T09:02:38;102252.53;;;21.88;54.02
71109;BME280;59614;51.012;-1.648;2022-07-09T09:05:12;102254.78;;;21.19;56.01
71109;BME280;59614;51.012;-1.648;2022-07-09T09:07:38;102254.47;;;22.09;53.99
71109;BME280;59614;51.012;-1.648;2022-07-09T09:10:04;102259.22;;;22.27;53.33
71109;BME280;59614;51.012;-1.648;2022-07-09T09:12:30;102251.81;;;22.34;52.85
71109;BME280;59614;51.012;-1.648;2022-07-09T09:14:56;102250.19;;;21.78;54.37
71109;BME280;59614;51.012;-1.648;2022-07-09T09:17:21;102253.56;;;22.10;53.21
71109;BME280;59614;51.012;-1.648;2022-07-09T09:19:48;102254.28;;;22.64;51.95
71109;BME280;59614;51.012;-1.648;2022-07-09T09:22:17;102251.94;;;22.05;53.74
71109;BME280;59614;51.012;-1.648;2022-07-09T09:24:43;102255.41;;;21.82;54.17
71109;BME280;59614;51.012;-1.648;2022-07-09T09:27:08;102254.38;;;21.59;54.77
71109;BME280;59614;51.012;-1.648;2022-07-09T09:29:34;102263.28;;;21.33;55.75
71109;BME280;59614;51.012;-1.648;2022-07-09T09:32:11;102263.50;;;21.27;55.94
71109;BME280;59614;51.012;-1.648;2022-07-09T09:34:37;102275.31;;;21.21;55.54
71109;BME280;59614;51.012;-1.648;2022-07-09T09:37:03;102269.66;;;21.01;56.44
71109;BME280;59614;51.012;-1.648;2022-07-09T09:39:29;102268.81;;;21.28;55.37
71109;BME280;59614;51.012;-1.648;2022-07-09T09:41:58;102265.13;;;21.59;54.70
71109;BME280;59614;51.012;-1.648;2022-07-09T09:44:29;102258.09;;;21.55;54.82
71109;BME280;59614;51.012;-1.648;2022-07-09T09:46:57;102254.13;;;21.94;53.56
71109;BME280;59614;51.012;-1.648;2022-07-09T09:49:23;102250.50;;;21.95;53.32
71109;BME280;59614;51.012;-1.648;2022-07-09T09:52:08;102254.88;;;21.72;53.90
71109;BME280;59614;51.012;-1.648;2022-07-09T09:54:36;102262.34;;;21.34;54.74
71109;BME280;59614;51.012;-1.648;2022-07-09T09:57:06;102270.09;;;21.17;55.69
71109;BME280;59614;51.012;-1.648;2022-07-09T09:59:34;102265.53;;;21.19;55.45
71109;BME280;59614;51.012;-1.648;2022-07-09T10:02:01;102258.66;;;21.38;54.44
71109;BME280;59614;51.012;-1.648;2022-07-09T10:04:27;102261.28;;;21.40;54.43
71109;BME280;59614;51.012;-1.648;2022-07-09T10:06:53;102269.47;;;21.35;54.94
71109;BME280;59614;51.012;-1.648;2022-07-09T10:09:19;102255.44;;;21.54;54.52
71109;BME280;59614;51.012;-1.648;2022-07-09T10:11:48;102261.50;;;21.32;54.83
71109;BME280;59614;51.012;-1.648;2022-07-09T10:14:32;102263.28;;;21.33;54.90
71109;BME280;59614;51.012;-1.648;2022-07-09T10:17:14;102261.72;;;21.26;55.15
71109;BME280;59614;51.012;-1.648;2022-07-09T10:20:04;102266.78;;;21.64;54.27
71109;BME280;59614;51.012;-1.648;2022-07-09T10:22:37;102266.88;;;22.38;52.85
71109;BME280;59614;51.012;-1.648;2022-07-09T10:25:04;102259.06;;;22.30;51.88
71109;BME280;59614;51.012;-1.648;2022-07-09T10:27:49;102263.53;;;22.57;53.75
71109;BME280;59614;51.012;-1.648;2022-07-09T10:30:41;102264.00;;;23.14;54.74
71109;BME280;59614;51.012;-1.648;2022-07-09T10:33:08;102258.09;;;24.54;47.12
71109;BME280;59614;51.012;-1.648;2022-07-09T10:35:45;102255.78;;;24.65;46.95
71109;BME280;59614;51.012;-1.648;2022-07-09T10:38:12;102254.63;;;24.31;46.92
71109;BME280;59614;51.012;-1.648;2022-07-09T10:40:40;102257.25;;;23.04;49.79
71109;BME280;59614;51.012;-1.648;2022-07-09T10:43:06;102252.31;;;23.80;48.90
71109;BME280;59614;51.012;-1.648;2022-07-09T10:45:35;102255.53;;;23.68;48.66
71109;BME280;59614;51.012;-1.648;2022-07-09T10:48:03;102249.16;;;24.32;47.77
71109;BME280;59614;51.012;-1.648;2022-07-09T10:50:31;102249.50;;;24.25;46.86
71109;BME280;59614;51.012;-1.648;2022-07-09T10:52:58;102235.09;;;25.21;45.41
71109;BME280;59614;51.012;-1.648;2022-07-09T10:55:27;102235.41;;;25.87;43.27
71109;BME280;59614;51.012;-1.648;2022-07-09T10:57:53;102226.66;;;25.47;43.64
71109;BME280;59614;51.012;-1.648;2022-07-09T11:00:29;102219.44;;;25.47;44.23
71109;BME280;59614;51.012;-1.648;2022-07-09T11:03:02;102225.84;;;24.50;44.79
71109;BME280;59614;51.012;-1.648;2022-07-09T11:05:30;102236.09;;;23.39;48.07
71109;BME280;59614;51.012;-1.648;2022-07-09T11:08:04;102246.78;;;22.72;49.39
71109;BME280;59614;51.012;-1.648;2022-07-09T11:10:31;102237.66;;;22.76;49.71
71109;BME280;59614;51.012;-1.648;2022-07-09T11:12:57;102234.69;;;24.14;49.07
71109;BME280;59614;51.012;-1.648;2022-07-09T11:15:25;102232.50;;;24.81;45.00
71109;BME280;59614;51.012;-1.648;2022-07-09T11:18:13;102218.13;;;25.37;44.89
71109;BME280;59614;51.012;-1.648;2022-07-09T11:20:40;102225.94;;;25.06;43.62
71109;BME280;59614;51.012;-1.648;2022-07-09T11:23:09;102221.41;;;25.61;36.77
71109;BME280;59614;51.012;-1.648;2022-07-09T11:25:34;102216.78;;;25.98;36.19
71109;BME280;59614;51.012;-1.648;2022-07-09T11:28:00;102216.16;;;25.75;42.57
71109;BME280;59614;51.012;-1.648;2022-07-09T11:30:27;102230.81;;;24.60;45.32
71109;BME280;59614;51.012;-1.648;2022-07-09T11:32:54;102230.75;;;23.15;48.31
71109;BME280;59614;51.012;-1.648;2022-07-09T11:35:32;102231.16;;;23.71;46.60
71109;BME280;59614;51.012;-1.648;2022-07-09T11:38:04;102220.59;;;24.66;43.74
71109;BME280;59614;51.012;-1.648;2022-07-09T11:40:32;102201.09;;;25.35;42.11
71109;BME280;59614;51.012;-1.648;2022-07-09T11:42:57;102214.50;;;25.55;41.88
71109;BME280;59614;51.012;-1.648;2022-07-09T11:45:28;102204.03;;;25.30;42.51
71109;BME280;59614;51.012;-1.648;2022-07-09T11:48:07;102213.13;;;25.99;41.94
71109;BME280;59614;51.012;-1.648;2022-07-09T11:50:40;102208.91;;;25.94;41.72
71109;BME280;59614;51.012;-1.648;2022-07-09T11:53:06;102203.38;;;24.88;42.65
71109;BME280;59614;51.012;-1.648;2022-07-09T11:55:32;102194.69;;;25.72;40.18
71109;BME280;59614;51.012;-1.648;2022-07-09T11:58:02;102196.84;;;25.48;40.54
71109;BME280;59614;51.012;-1.648;2022-07-09T12:00:33;102186.03;;;26.98;39.00
71109;BME280;59614;51.012;-1.648;2022-07-09T12:02:59;102184.19;;;27.46;37.48
71109;BME280;59614;51.012;-1.648;2022-07-09T12:05:29;102180.88;;;26.94;38.64
71109;BME280;59614;51.012;-1.648;2022-07-09T12:08:00;102180.31;;;25.54;40.17
71109;BME280;59614;51.012;-1.648;2022-07-09T12:10:32;102182.56;;;25.97;40.24
71109;BME280;59614;51.012;-1.648;2022-07-09T12:12:58;102184.81;;;26.56;37.47
71109;BME280;59614;51.012;-1.648;2022-07-09T12:15:25;102181.75;;;26.94;37.26
71109;BME280;59614;51.012;-1.648;2022-07-09T12:17:58;102171.38;;;27.64;35.52
71109;BME280;59614;51.012;-1.648;2022-07-09T12:20:26;102168.47;;;27.81;35.47
71109;BME280;59614;51.012;-1.648;2022-07-09T12:22:52;102164.75;;;27.53;36.14
71109;BME280;59614;51.012;-1.648;2022-07-09T12:25:19;102175.47;;;27.40;35.95
71109;BME280;59614;51.012;-1.648;2022-07-09T12:27:45;102176.69;;;27.04;36.48
71109;BME280;59614;51.012;-1.648;2022-07-09T12:30:11;102181.81;;;26.45;37.54
71109;BME280;59614;51.012;-1.648;2022-07-09T12:32:37;102179.84;;;26.15;38.20
71109;BME280;59614;51.012;-1.648;2022-07-09T12:35:03;102175.69;;;26.57;36.93
71109;BME280;59614;51.012;-1.648;2022-07-09T12:37:29;102173.97;;;26.72;36.63